Time;durP1;ratioP1;P1;durP2;ratioP2;P2;SDS_P1;SDS_P2;PMS_P1;PMS_P2;Temp;Humidity;BMP_temperature;BMP_pressure;BME280_temperature;BME280_humidity;BME280_pressure;Samples;Min_cycle;Max_cycle;Signal;HPM_P1;HPM_P2
2022/07/05 00:00:32;;;;;;;0.20;0.20;;;14.60;99.90;;;;;;4970903;28;20680;-84
2022/07/05 00:02:58;;;;;;;0.10;0.10;;;14.60;99.90;;;;;;4985797;28;20580;-84
2022/07/05 00:05:23;;;;;;;0.10;0.10;;;14.60;99.90;;;;;;4990174;28;20740;-84
2022/07/05 00:07:49;;;;;;;0.10;0.10;;;14.60;99.90;;;;;;4982966;28;20200;-85
2022/07/05 00:10:14;;;;;;;0.10;0.10;;;14.50;99.90;;;;;;4979644;28;20208;-84
2022/07/05 00:12:40;;;;;;;0.10;0.10;;;14.40;99.90;;;;;;4982852;28;20580;-84
2022/07/05 00:15:06;;;;;;;0.10;0.10;;;14.40;99.90;;;;;;4982314;28;20323;-84
2022/07/05 00:17:32;;;;;;;0.20;0.20;;;14.40;99.90;;;;;;4966815;28;20624;-84
2022/07/05 00:19:57;;;;;;;0.10;0.10;;;14.30;99.90;;;;;;4968730;28;20476;-84
2022/07/05 00:22:23;;;;;;;0.10;0.10;;;14.20;99.90;;;;;;4967898;28;20287;-85
2022/07/05 00:24:50;;;;;;;0.10;0.10;;;14.10;99.90;;;;;;4985626;28;20185;-85
2022/07/05 00:27:16;;;;;;;0.10;0.10;;;14.20;99.90;;;;;;4985554;28;20185;-85
2022/07/05 00:29:41;;;;;;;0.10;0.10;;;14.10;99.90;;;;;;4986632;28;20452;-82
2022/07/05 00:32:07;;;;;;;0.10;0.10;;;14.00;99.90;;;;;;4970589;28;20193;-85
2022/07/05 00:34:32;;;;;;;0.10;0.10;;;13.90;99.90;;;;;;4983726;28;20207;-84
2022/07/05 00:36:58;;;;;;;0.10;0.10;;;13.90;99.90;;;;;;4984840;28;20204;-84
2022/07/05 00:39:24;;;;;;;0.10;0.10;;;13.90;99.90;;;;;;4983636;28;20258;-85
2022/07/05 00:41:49;;;;;;;0.10;0.10;;;13.80;99.90;;;;;;4964860;28;20209;-85
2022/07/05 00:44:15;;;;;;;0.10;0.10;;;13.80;99.90;;;;;;4977922;28;20200;-84
2022/07/05 00:46:43;;;;;;;0.10;0.10;;;13.80;99.90;;;;;;4985732;28;20188;-85
2022/07/05 00:49:08;;;;;;;0.20;0.20;;;13.80;99.90;;;;;;4993434;28;20280;-85
2022/07/05 00:51:38;;;;;;;0.17;0.17;;;13.80;99.90;;;;;;4995007;28;20541;-86
2022/07/05 00:54:06;;;;;;;0.10;0.10;;;13.70;99.90;;;;;;4976535;28;20208;-85
2022/07/05 00:56:32;;;;;;;0.10;0.10;;;13.80;99.90;;;;;;4990093;28;20479;-84
2022/07/05 00:58:57;;;;;;;0.10;0.10;;;13.70;99.90;;;;;;4976627;28;20490;-84
2022/07/05 01:01:25;;;;;;;0.20;0.20;;;13.60;99.90;;;;;;4990749;28;20214;-84
2022/07/05 01:03:51;;;;;;;0.17;0.17;;;13.60;99.90;;;;;;4985071;28;20185;-84
2022/07/05 01:06:17;;;;;;;0.10;0.10;;;13.50;99.90;;;;;;4994241;28;20455;-84
2022/07/05 01:08:45;;;;;;;0.10;0.10;;;13.60;99.90;;;;;;4984669;28;20467;-85
2022/07/05 01:11:12;;;;;;;0.10;0.10;;;13.60;99.90;;;;;;4985417;28;20443;-84
2022/07/05 01:13:38;;;;;;;0.10;0.10;;;13.60;99.90;;;;;;4992296;28;20841;-84
2022/07/05 01:16:04;;;;;;;0.10;0.10;;;13.50;99.90;;;;;;4983650;28;20462;-84
2022/07/05 01:18:32;;;;;;;0.20;0.20;;;13.40;99.90;;;;;;4988838;28;20657;-85
2022/07/05 01:20:58;;;;;;;0.20;0.20;;;13.40;99.90;;;;;;4989812;28;20444;-84
2022/07/05 01:23:27;;;;;;;0.17;0.17;;;13.40;99.90;;;;;;4993603;28;20518;-86
2022/07/05 01:25:54;;;;;;;0.10;0.10;;;13.40;99.90;;;;;;4973972;28;20595;-84
2022/07/05 01:28:20;;;;;;;0.10;0.10;;;13.40;99.90;;;;;;4994061;28;20451;-85
2022/07/05 01:30:47;;;;;;;0.20;0.20;;;13.40;99.90;;;;;;4971335;28;20578;-83
2022/07/05 01:33:12;;;;;;;0.10;0.10;;;13.40;99.90;;;;;;4984801;28;20550;-84
2022/07/05 01:35:38;;;;;;;0.10;0.10;;;13.40;99.90;;;;;;4990969;28;20447;-84
2022/07/05 01:38:04;;;;;;;0.10;0.10;;;13.40;99.90;;;;;;4994963;28;20215;-85
2022/07/05 01:40:29;;;;;;;0.17;0.17;;;13.30;99.90;;;;;;4969835;28;20189;-83
2022/07/05 01:42:55;;;;;;;0.10;0.10;;;13.30;99.90;;;;;;4983891;28;20311;-85
2022/07/05 01:45:39;;;;;;;0.10;0.10;;;13.30;99.90;;;;;;4991609;28;20452;-84
2022/07/05 01:48:08;;;;;;;0.20;0.20;;;13.30;99.90;;;;;;4974765;28;20204;-85
2022/07/05 01:50:47;;;;;;;0.10;0.10;;;13.30;99.90;;;;;;4988481;28;21264;-85
2022/07/05 01:53:22;;;;;;;0.10;0.10;;;13.30;99.90;;;;;;4991990;28;20444;-84
2022/07/05 01:55:48;;;;;;;0.10;0.10;;;13.30;99.90;;;;;;4975780;28;20447;-84
2022/07/05 01:58:13;;;;;;;0.20;0.20;;;13.30;99.90;;;;;;4986607;28;20508;-85
2022/07/05 02:00:48;;;;;;;0.10;0.10;;;13.30;99.90;;;;;;4987140;28;20556;-84
2022/07/05 02:03:14;;;;;;;0.10;0.10;;;13.20;99.90;;;;;;4983474;28;20248;-84
2022/07/05 02:05:42;;;;;;;0.17;0.17;;;13.30;99.90;;;;;;4990200;28;20448;-84
2022/07/05 02:08:08;;;;;;;0.10;0.10;;;13.20;99.90;;;;;;4988394;28;20452;-84
2022/07/05 02:10:38;;;;;;;0.10;0.10;;;13.20;99.90;;;;;;4968599;28;20452;-84
2022/07/05 02:13:05;;;;;;;0.20;0.20;;;13.20;99.90;;;;;;4987277;28;20606;-84
2022/07/05 02:15:41;;;;;;;0.20;0.20;;;13.20;99.90;;;;;;4967776;28;20506;-84
2022/07/05 02:18:08;;;;;;;0.10;0.10;;;13.30;99.90;;;;;;4969693;28;20874;-84
2022/07/05 02:20:35;;;;;;;0.10;0.10;;;13.30;99.90;;;;;;4986774;28;20468;-84
2022/07/05 02:23:00;;;;;;;0.10;0.10;;;13.30;99.90;;;;;;4968425;28;20571;-84
2022/07/05 02:25:26;;;;;;;0.10;0.10;;;13.30;99.90;;;;;;4971155;28;21079;-85
2022/07/05 02:27:53;;;;;;;0.20;0.20;;;13.30;99.90;;;;;;4988651;28;20263;-83
2022/07/05 02:30:19;;;;;;;0.10;0.10;;;13.30;99.90;;;;;;4969964;28;21035;-85
2022/07/05 02:32:45;;;;;;;0.10;0.10;;;13.30;99.90;;;;;;4988524;28;20952;-84
2022/07/05 02:35:12;;;;;;;0.10;0.10;;;13.20;99.90;;;;;;4987585;28;20499;-85
2022/07/05 02:37:39;;;;;;;0.20;0.20;;;13.30;99.90;;;;;;4987560;28;20459;-84
2022/07/05 02:40:11;;;;;;;0.10;0.10;;;13.40;99.90;;;;;;4988426;28;20474;-84
2022/07/05 02:42:38;;;;;;;0.10;0.10;;;13.40;99.90;;;;;;4986847;28;21049;-84
2022/07/05 02:45:06;;;;;;;0.10;0.10;;;13.40;99.90;;;;;;4971284;28;20452;-84
2022/07/05 02:47:32;;;;;;;0.20;0.20;;;13.40;99.90;;;;;;4973604;28;20516;-84
2022/07/05 02:49:58;;;;;;;0.10;0.10;;;13.40;99.90;;;;;;4988086;28;20444;-85
2022/07/05 02:52:24;;;;;;;0.10;0.10;;;13.30;99.90;;;;;;4989157;28;20449;-86
2022/07/05 02:54:50;;;;;;;0.10;0.10;;;13.30;99.90;;;;;;4986829;28;20896;-84
2022/07/05 02:57:15;;;;;;;0.10;0.10;;;13.30;99.90;;;;;;4970613;28;20190;-84
2022/07/05 02:59:41;;;;;;;0.10;0.10;;;13.30;99.90;;;;;;4987546;28;20192;-85
2022/07/05 03:02:06;;;;;;;0.10;0.10;;;13.30;99.90;;;;;;4987064;28;20383;-86
2022/07/05 03:04:32;;;;;;;0.10;0.10;;;13.30;99.90;;;;;;4987989;28;20660;-84
2022/07/05 03:06:57;;;;;;;0.10;0.10;;;13.30;99.90;;;;;;4984975;28;20201;-84
2022/07/05 03:09:23;;;;;;;0.20;0.20;;;13.30;99.90;;;;;;4989475;28;20204;-84
2022/07/05 03:11:48;;;;;;;0.10;0.10;;;13.40;99.90;;;;;;4969939;28;20200;-84
2022/07/05 03:14:14;;;;;;;0.10;0.10;;;13.40;99.90;;;;;;4977384;28;20194;-84
2022/07/05 03:16:39;;;;;;;0.10;0.10;;;13.30;99.90;;;;;;4982607;28;20192;-84
2022/07/05 03:19:05;;;;;;;0.20;0.20;;;13.40;99.90;;;;;;4968844;28;20551;-84
2022/07/05 03:21:30;;;;;;;0.10;0.10;;;13.40;99.90;;;;;;4961470;28;20228;-85
2022/07/05 03:23:56;;;;;;;0.10;0.10;;;13.50;99.90;;;;;;4943601;29;20191;-83
2022/07/05 03:26:21;;;;;;;0.10;0.10;;;13.40;99.90;;;;;;4959567;28;20182;-84
2022/07/05 03:28:47;;;;;;;0.10;0.10;;;13.40;99.90;;;;;;4967915;28;20551;-85
2022/07/05 03:31:13;;;;;;;0.20;0.20;;;13.30;99.90;;;;;;4968303;28;20182;-85
2022/07/05 03:33:38;;;;;;;0.10;0.10;;;13.30;99.90;;;;;;4968813;28;20204;-85
2022/07/05 03:36:04;;;;;;;0.10;0.10;;;13.30;99.90;;;;;;4958149;28;20188;-85
2022/07/05 03:38:29;;;;;;;0.10;0.10;;;13.30;99.90;;;;;;4967938;28;20189;-85
2022/07/05 03:40:55;;;;;;;0.10;0.10;;;13.30;99.90;;;;;;4969767;28;20220;-85
2022/07/05 03:43:20;;;;;;;0.10;0.10;;;13.20;99.90;;;;;;4969315;28;20331;-84
2022/07/05 03:45:46;;;;;;;0.10;0.10;;;13.20;99.90;;;;;;4963852;28;20228;-85
2022/07/05 03:48:11;;;;;;;0.10;0.10;;;13.10;99.90;;;;;;4945699;28;20214;-84
2022/07/05 03:50:37;;;;;;;0.10;0.10;;;13.10;99.90;;;;;;4968543;28;20615;-85
2022/07/05 03:53:03;;;;;;;0.10;0.10;;;13.00;99.90;;;;;;4966843;28;20178;-85
2022/07/05 03:55:28;;;;;;;0.10;0.10;;;13.10;99.90;;;;;;4949814;28;20303;-86
2022/07/05 03:57:54;;;;;;;0.10;0.10;;;13.00;99.90;;;;;;4961732;28;20905;-85
2022/07/05 04:00:19;;;;;;;0.10;0.10;;;13.10;99.90;;;;;;4963730;28;20247;-84
2022/07/05 04:02:45;;;;;;;0.10;0.10;;;13.10;99.90;;;;;;4967983;28;20222;-85
2022/07/05 04:05:10;;;;;;;0.10;0.10;;;13.10;99.90;;;;;;4965905;28;20193;-85
2022/07/05 04:07:48;;;;;;;0.10;0.10;;;13.30;99.90;;;;;;4967834;28;20249;-85
2022/07/05 04:10:14;;;;;;;0.10;0.10;;;13.30;99.90;;;;;;4949271;28;20740;-84
2022/07/05 04:12:39;;;;;;;0.20;0.20;;;13.30;99.90;;;;;;4952714;28;20442;-86
2022/07/05 04:15:05;;;;;;;0.10;0.10;;;13.30;99.90;;;;;;4950850;28;20189;-84
2022/07/05 04:17:31;;;;;;;0.10;0.10;;;13.30;99.90;;;;;;4949382;28;20910;-85
2022/07/05 04:19:56;;;;;;;0.10;0.10;;;13.40;99.90;;;;;;4950923;28;20445;-86
2022/07/05 04:22:22;;;;;;;0.10;0.10;;;13.30;99.90;;;;;;4977367;28;20315;-85
2022/07/05 04:27:31;;;;;;;0.10;0.10;;;13.40;99.90;;;;;;4987249;28;20572;-85
2022/07/05 04:29:57;;;;;;;0.10;0.10;;;13.40;99.90;;;;;;4982721;28;20527;-85
2022/07/05 04:32:22;;;;;;;0.10;0.10;;;13.40;99.90;;;;;;4981736;28;20200;-86
2022/07/05 04:34:48;;;;;;;0.10;0.10;;;13.40;99.90;;;;;;4985292;28;20204;-86
2022/07/05 04:37:13;;;;;;;0.10;0.10;;;13.40;99.90;;;;;;4987944;28;20231;-83
2022/07/05 04:39:39;;;;;;;0.10;0.10;;;13.50;99.90;;;;;;4965347;28;20664;-86
2022/07/05 04:42:05;;;;;;;0.10;0.10;;;13.50;99.90;;;;;;4972442;28;20242;-85
2022/07/05 04:44:30;;;;;;;0.10;0.10;;;13.60;99.90;;;;;;4982383;28;20287;-85
2022/07/05 04:46:56;;;;;;;0.10;0.10;;;13.60;99.90;;;;;;4989541;28;20185;-85
2022/07/05 04:49:21;;;;;;;0.10;0.10;;;13.70;99.90;;;;;;4986761;28;20719;-85
2022/07/05 04:51:47;;;;;;;0.10;0.10;;;13.70;99.90;;;;;;4972420;28;20192;-84
2022/07/05 04:54:12;;;;;;;0.20;0.20;;;13.80;99.90;;;;;;4968965;28;20192;-86
2022/07/05 04:56:38;;;;;;;0.20;0.20;;;13.80;99.90;;;;;;4982492;28;20212;-85
2022/07/05 04:59:03;;;;;;;0.20;0.20;;;13.90;99.90;;;;;;4985184;28;20193;-85
2022/07/05 05:01:29;;;;;;;0.10;0.10;;;14.00;99.90;;;;;;4978672;28;20268;-85
2022/07/05 05:03:54;;;;;;;0.10;0.10;;;14.10;99.90;;;;;;4985948;28;20188;-84
2022/07/05 05:06:20;;;;;;;0.10;0.10;;;14.20;99.90;;;;;;4983084;28;20212;-86
2022/07/05 05:08:45;;;;;;;0.10;0.10;;;14.40;99.90;;;;;;4984725;28;20192;-85
2022/07/05 05:11:11;;;;;;;0.10;0.10;;;14.70;99.90;;;;;;4986827;28;20632;-84
2022/07/05 05:13:36;;;;;;;0.10;0.10;;;14.80;99.90;;;;;;4988132;28;20267;-84
2022/07/05 05:16:02;;;;;;;0.10;0.10;;;14.80;99.90;;;;;;4984242;28;20208;-86
2022/07/05 05:18:28;;;;;;;0.10;0.10;;;14.70;99.90;;;;;;4978295;28;20200;-88
2022/07/05 05:20:57;;;;;;;0.10;0.10;;;14.70;99.90;;;;;;4970104;28;20479;-87
2022/07/05 05:23:23;;;;;;;0.10;0.10;;;14.60;99.90;;;;;;4990763;28;20232;-87
2022/07/05 05:25:49;;;;;;;0.10;0.10;;;14.70;99.90;;;;;;4986625;28;20960;-87
2022/07/05 05:28:14;;;;;;;0.10;0.10;;;14.90;99.90;;;;;;4987074;28;20200;-86
2022/07/05 05:30:40;;;;;;;0.10;0.10;;;15.00;99.90;;;;;;4980703;28;20436;-86
2022/07/05 05:33:05;;;;;;;0.10;0.10;;;15.10;99.90;;;;;;4983110;28;20185;-87
2022/07/05 05:35:31;;;;;;;0.10;0.10;;;15.20;99.90;;;;;;4989180;28;20181;-86
2022/07/05 05:37:57;;;;;;;0.10;0.10;;;15.30;99.90;;;;;;4989335;28;20181;-88
2022/07/05 05:40:24;;;;;;;0.10;0.10;;;15.40;99.90;;;;;;4970999;28;20220;-88
2022/07/05 05:42:50;;;;;;;0.10;0.10;;;15.40;99.90;;;;;;4986781;28;20219;-86
2022/07/05 05:45:16;;;;;;;0.10;0.10;;;15.40;99.90;;;;;;4988660;28;20498;-86
2022/07/05 05:47:51;;;;;;;0.10;0.10;;;15.50;99.90;;;;;;4993888;28;20499;-84
2022/07/05 05:50:22;;;;;;;0.10;0.10;;;15.50;99.90;;;;;;4973476;28;20471;-87
2022/07/05 05:52:48;;;;;;;0.10;0.10;;;15.60;99.90;;;;;;4990807;28;20808;-87
2022/07/05 05:55:13;;;;;;;0.10;0.10;;;15.70;99.90;;;;;;4988448;28;20436;-87
2022/07/05 05:57:39;;;;;;;0.10;0.10;;;15.80;99.90;;;;;;4970855;28;20455;-83
2022/07/05 06:00:06;;;;;;;0.10;0.10;;;15.90;99.90;;;;;;4989611;28;20192;-86
2022/07/05 06:02:31;;;;;;;0.10;0.10;;;15.80;99.90;;;;;;4988343;28;20279;-85
2022/07/05 06:04:57;;;;;;;0.10;0.10;;;16.00;99.90;;;;;;4990071;28;20440;-86
2022/07/05 06:07:22;;;;;;;0.10;0.10;;;16.20;99.90;;;;;;4972728;28;20185;-86
2022/07/05 06:09:48;;;;;;;0.10;0.10;;;16.40;99.90;;;;;;4987864;28;20177;-86
2022/07/05 06:12:13;;;;;;;0.10;0.10;;;16.50;99.90;;;;;;4972367;28;20280;-86
2022/07/05 06:14:39;;;;;;;0.10;0.10;;;16.60;99.90;;;;;;4989570;28;20315;-85
2022/07/05 06:17:04;;;;;;;0.10;0.10;;;16.80;99.90;;;;;;4992864;28;20582;-87
2022/07/05 06:19:30;;;;;;;0.10;0.10;;;16.90;99.90;;;;;;4992094;28;20196;-86
2022/07/05 06:21:55;;;;;;;0.10;0.10;;;17.00;99.90;;;;;;4986911;28;20754;-86
2022/07/05 06:24:21;;;;;;;0.10;0.10;;;17.00;99.90;;;;;;5001791;28;20177;-84
2022/07/05 06:26:46;;;;;;;0.10;0.10;;;17.00;99.90;;;;;;4971266;28;20460;-86
2022/07/05 06:29:12;;;;;;;0.10;0.10;;;16.90;99.90;;;;;;4969275;28;20867;-86
2022/07/05 06:31:37;;;;;;;0.10;0.10;;;16.90;99.90;;;;;;4977634;28;20225;-86
2022/07/05 06:34:03;;;;;;;0.10;0.10;;;16.90;99.90;;;;;;4984614;28;20279;-83
2022/07/05 06:36:29;;;;;;;0.10;0.10;;;17.00;99.90;;;;;;4982276;28;20192;-88
2022/07/05 06:38:54;;;;;;;0.10;0.10;;;17.00;99.90;;;;;;4973150;28;20231;-86
2022/07/05 06:41:20;;;;;;;0.10;0.10;;;17.20;99.90;;;;;;4966689;28;20185;-86
2022/07/05 06:43:45;;;;;;;0.10;0.10;;;17.20;99.90;;;;;;4973752;28;20645;-84
2022/07/05 06:46:11;;;;;;;0.10;0.10;;;17.10;99.90;;;;;;4987060;28;20201;-84
2022/07/05 06:48:36;;;;;;;0.10;0.10;;;17.10;99.90;;;;;;4971484;28;20229;-85
2022/07/05 06:51:02;;;;;;;0.10;0.10;;;17.10;99.90;;;;;;4986772;28;20193;-84
2022/07/05 06:53:28;;;;;;;0.10;0.10;;;17.30;99.90;;;;;;4991216;28;20227;-85
2022/07/05 06:55:53;;;;;;;0.10;0.10;;;17.40;99.90;;;;;;4973920;28;20189;-85
2022/07/05 06:58:19;;;;;;;0.10;0.10;;;17.20;99.90;;;;;;4989787;28;20607;-84
2022/07/05 07:00:45;;;;;;;0.10;0.10;;;17.40;99.90;;;;;;4970788;28;20277;-86
2022/07/05 07:03:10;;;;;;;0.10;0.10;;;17.50;99.90;;;;;;4980124;28;20543;-86
2022/07/05 07:05:36;;;;;;;0.10;0.10;;;17.60;99.90;;;;;;4984796;28;20189;-85
2022/07/05 07:10:47;;;;;;;0.10;0.10;;;17.60;99.90;;;;;;4984764;28;22420;-86
2022/07/05 07:13:13;;;;;;;0.10;0.10;;;17.70;99.90;;;;;;4971300;28;20444;-85
2022/07/05 07:15:40;;;;;;;0.10;0.10;;;17.70;99.90;;;;;;4972590;28;20443;-87
2022/07/05 07:18:06;;;;;;;0.10;0.10;;;17.50;99.90;;;;;;4970638;28;20189;-85
2022/07/05 07:20:31;;;;;;;0.10;0.10;;;17.70;99.90;;;;;;4988508;28;20535;-86
2022/07/05 07:22:57;;;;;;;0.10;0.10;;;18.00;99.90;;;;;;4985622;28;20248;-84
2022/07/05 07:25:23;;;;;;;0.10;0.10;;;17.90;99.90;;;;;;4987406;28;20188;-86
2022/07/05 07:27:51;;;;;;;0.10;0.10;;;17.80;99.90;;;;;;4972764;28;20189;-87
2022/07/05 07:30:19;;;;;;;0.10;0.10;;;18.10;99.90;;;;;;4990333;28;20440;-86
2022/07/05 07:32:45;;;;;;;0.10;0.10;;;18.00;99.90;;;;;;4985536;28;20452;-85
2022/07/05 07:35:11;;;;;;;0.10;0.10;;;18.00;99.90;;;;;;4990145;28;20786;-86
2022/07/05 07:37:37;;;;;;;0.10;0.10;;;18.10;99.90;;;;;;4987919;28;20463;-85
2022/07/05 07:40:04;;;;;;;0.10;0.10;;;17.90;99.90;;;;;;4990831;28;20224;-84
2022/07/05 07:42:30;;;;;;;0.10;0.10;;;18.00;99.90;;;;;;4988040;28;20487;-83
2022/07/05 07:44:55;;;;;;;0.10;0.10;;;18.10;99.90;;;;;;4987063;28;20539;-86
2022/07/05 07:47:21;;;;;;;0.10;0.10;;;18.00;99.90;;;;;;4990875;28;20236;-84
2022/07/05 07:49:46;;;;;;;0.10;0.10;;;17.90;99.90;;;;;;4990751;28;20190;-82
2022/07/05 07:52:12;;;;;;;0.10;0.10;;;17.70;99.90;;;;;;4990347;28;20189;-85
2022/07/05 07:54:38;;;;;;;0.10;0.10;;;17.50;99.90;;;;;;4987339;28;20184;-84
2022/07/05 07:57:04;;;;;;;0.10;0.10;;;17.40;99.90;;;;;;4989893;28;20432;-85
2022/07/05 07:59:34;;;;;;;0.10;0.10;;;17.40;99.90;;;;;;4989304;28;20538;-84
2022/07/05 08:02:00;;;;;;;0.10;0.10;;;17.40;99.90;;;;;;4971047;28;20483;-84
2022/07/05 08:04:25;;;;;;;0.10;0.10;;;17.30;99.90;;;;;;4970245;28;20494;-83
2022/07/05 08:06:51;;;;;;;0.10;0.10;;;17.20;99.90;;;;;;4988412;28;20458;-82
2022/07/05 08:09:17;;;;;;;0.10;0.10;;;17.60;99.90;;;;;;4982960;28;20181;-85
2022/07/05 08:11:43;;;;;;;0.10;0.10;;;18.00;99.90;;;;;;4988896;28;20239;-84
2022/07/05 08:14:09;;;;;;;0.10;0.10;;;18.60;99.90;;;;;;4985702;28;20177;-84
2022/07/05 08:16:34;;;;;;;0.10;0.10;;;19.20;99.90;;;;;;4979802;28;20804;-83
2022/07/05 08:21:44;;;;;;;0.10;0.10;;;19.20;99.90;;;;;;4988539;28;20806;-83
2022/07/05 08:24:14;;;;;;;0.10;0.10;;;18.90;99.90;;;;;;4986517;28;20471;-84
2022/07/05 08:26:41;;;;;;;0.10;0.10;;;18.40;99.90;;;;;;4988337;28;20264;-84
2022/07/05 08:29:12;;;;;;;0.10;0.10;;;18.10;99.90;;;;;;4990237;28;20444;-84
2022/07/05 08:31:45;;;;;;;0.10;0.10;;;17.90;99.90;;;;;;4984856;28;20449;-83
2022/07/05 08:34:12;;;;;;;0.10;0.10;;;17.80;99.90;;;;;;4980563;28;20448;-85
2022/07/05 08:36:39;;;;;;;0.10;0.10;;;17.70;99.90;;;;;;4991123;28;20419;-85
2022/07/05 08:39:05;;;;;;;0.10;0.10;;;17.70;99.90;;;;;;4984233;28;20551;-85
2022/07/05 08:41:34;;;;;;;0.10;0.10;;;17.90;99.90;;;;;;4970481;28;20454;-84
2022/07/05 08:44:02;;;;;;;0.10;0.10;;;18.10;99.90;;;;;;4987503;28;20549;-84
2022/07/05 08:46:31;;;;;;;0.10;0.10;;;18.50;99.90;;;;;;4969094;28;20547;-83
2022/07/05 08:48:59;;;;;;;0.10;0.10;;;19.10;99.90;;;;;;4986975;28;20444;-83
2022/07/05 08:51:28;;;;;;;0.10;0.10;;;19.00;99.90;;;;;;4984709;28;20448;-84
2022/07/05 08:53:58;;;;;;;0.10;0.10;;;19.10;99.90;;;;;;4984188;28;20893;-84
2022/07/05 08:56:23;;;;;;;0.10;0.10;;;19.00;99.90;;;;;;4990188;28;20498;-85
2022/07/05 08:58:49;;;;;;;0.10;0.10;;;19.00;99.90;;;;;;4984219;28;20457;-81
2022/07/05 09:01:15;;;;;;;0.10;0.00;;;19.00;99.90;;;;;;4981337;28;20194;-84
2022/07/05 09:03:47;;;;;;;0.10;0.10;;;18.80;99.90;;;;;;4981140;28;20251;-85
2022/07/05 09:06:17;;;;;;;0.10;0.10;;;18.80;99.90;;;;;;4984746;28;20821;-84
2022/07/05 09:08:43;;;;;;;0.10;0.10;;;18.70;99.90;;;;;;4990771;28;20466;-84
2022/07/05 09:11:13;;;;;;;0.10;0.00;;;18.30;99.90;;;;;;4968743;28;20471;-85
2022/07/05 09:13:42;;;;;;;0.10;0.10;;;18.40;99.90;;;;;;4984565;28;22183;-83
2022/07/05 09:16:08;;;;;;;0.10;0.10;;;18.20;99.90;;;;;;4994509;28;21031;-84
2022/07/05 09:18:45;;;;;;;0.10;0.10;;;18.20;99.90;;;;;;4992328;28;20435;-83
2022/07/05 09:21:12;;;;;;;0.10;0.10;;;18.30;99.90;;;;;;4990679;28;20449;-84
2022/07/05 09:23:39;;;;;;;0.10;0.07;;;18.60;99.90;;;;;;4990472;28;20484;-84
2022/07/05 09:26:04;;;;;;;0.10;0.10;;;19.50;99.90;;;;;;4988513;28;20483;-85
2022/07/05 09:28:30;;;;;;;0.10;0.10;;;20.40;99.90;;;;;;4990530;28;20487;-83
2022/07/05 09:30:55;;;;;;;0.10;0.10;;;21.10;99.90;;;;;;4991496;28;20670;-84
2022/07/05 09:33:21;;;;;;;0.10;0.00;;;21.60;99.90;;;;;;4975639;28;20946;-83
2022/07/05 09:35:56;;;;;;;0.10;0.10;;;21.90;99.90;;;;;;4989622;28;20602;-81
2022/07/05 09:38:26;;;;;;;0.10;0.00;;;21.80;99.90;;;;;;4973834;28;20199;-82
2022/07/05 09:40:57;;;;;;;0.10;0.00;;;21.50;99.90;;;;;;4994150;28;20448;-84
2022/07/05 09:43:32;;;;;;;0.10;0.00;;;20.70;99.90;;;;;;4986213;28;21206;-83
2022/07/05 09:46:04;;;;;;;0.10;0.00;;;20.10;99.90;;;;;;4991652;28;20490;-84
2022/07/05 09:48:32;;;;;;;0.10;0.00;;;19.80;99.90;;;;;;4988341;28;20444;-85
2022/07/05 09:51:13;;;;;;;0.10;0.00;;;19.50;99.90;;;;;;4969635;28;20459;-83
2022/07/05 09:53:54;;;;;;;0.10;0.10;;;19.30;99.90;;;;;;4972682;28;20501;-84
2022/07/05 09:56:20;;;;;;;0.10;0.07;;;19.40;99.90;;;;;;4973834;28;20868;-84
2022/07/05 09:58:46;;;;;;;0.10;0.10;;;19.30;99.90;;;;;;4986651;28;20448;-85
2022/07/05 10:01:24;;;;;;;0.10;0.10;;;19.10;99.90;;;;;;4990350;28;20587;-85
2022/07/05 10:04:02;;;;;;;0.10;0.10;;;18.80;99.90;;;;;;4990326;28;20204;-83
2022/07/05 10:06:31;;;;;;;0.10;0.10;;;18.50;99.90;;;;;;4974259;28;20508;-83
2022/07/05 10:08:57;;;;;;;0.10;0.10;;;18.50;99.90;;;;;;4987754;28;20898;-85
2022/07/05 10:11:29;;;;;;;0.10;0.10;;;18.40;99.90;;;;;;4974164;28;20483;-84
2022/07/05 10:13:55;;;;;;;0.10;0.10;;;18.50;99.90;;;;;;4970838;28;20452;-84
2022/07/05 10:16:22;;;;;;;0.10;0.10;;;18.70;99.90;;;;;;4976840;28;20445;-83
2022/07/05 10:18:53;;;;;;;0.10;0.00;;;19.10;99.90;;;;;;4980869;28;20200;-83
2022/07/05 10:21:19;;;;;;;0.10;0.10;;;20.50;99.90;;;;;;4990159;28;20480;-83
2022/07/05 10:23:48;;;;;;;0.10;0.10;;;20.80;99.90;;;;;;4967449;28;20465;-83
2022/07/05 10:26:15;;;;;;;0.10;0.00;;;20.50;99.90;;;;;;4969149;28;20448;-85
2022/07/05 10:28:45;;;;;;;0.10;0.00;;;21.10;99.90;;;;;;4989610;28;20455;-84
2022/07/05 10:31:12;;;;;;;0.10;0.00;;;21.00;99.90;;;;;;4988561;28;20436;-83
2022/07/05 10:33:39;;;;;;;0.10;0.10;;;21.50;99.90;;;;;;4984535;28;20451;-83
2022/07/05 10:36:05;;;;;;;0.10;0.10;;;21.00;99.90;;;;;;4988883;28;20526;-83
2022/07/05 10:38:35;;;;;;;0.10;0.00;;;20.50;99.90;;;;;;4988360;28;20961;-83
2022/07/05 10:41:04;;;;;;;0.10;0.00;;;19.80;99.90;;;;;;4988881;28;20451;-86
2022/07/05 10:43:30;;;;;;;0.10;0.00;;;20.40;99.90;;;;;;4983508;28;20515;-85
2022/07/05 10:45:56;;;;;;;0.10;0.00;;;21.50;99.90;;;;;;4983088;28;20857;-84
2022/07/05 10:48:23;;;;;;;0.10;0.00;;;22.70;99.90;;;;;;4989173;28;20231;-84
2022/07/05 10:51:00;;;;;;;0.10;0.00;;;23.70;99.90;;;;;;4982058;28;20306;-84
2022/07/05 10:53:55;;;;;;;0.10;0.00;;;23.80;99.90;;;;;;4971947;28;20448;-84
2022/07/05 10:56:21;;;;;;;0.10;0.00;;;24.20;99.90;;;;;;4983815;28;20471;-85
2022/07/05 10:58:48;;;;;;;0.00;0.00;;;22.90;99.90;;;;;;4990114;28;20815;-84
2022/07/05 11:01:19;;;;;;;0.00;0.00;;;21.80;99.90;;;;;;4985741;28;20196;-85
2022/07/05 11:04:00;;;;;;;0.10;0.00;;;21.70;99.90;;;;;;4971588;28;20464;-85
2022/07/05 11:06:26;;;;;;;0.00;0.00;;;21.50;99.90;;;;;;4981150;28;20440;-85
2022/07/05 11:09:02;;;;;;;0.10;0.00;;;21.30;99.90;;;;;;4985668;28;20460;-85
2022/07/05 11:11:42;;;;;;;0.10;0.10;;;20.30;99.90;;;;;;4986399;28;20443;-83
2022/07/05 11:14:20;;;;;;;0.10;0.10;;;20.50;99.90;;;;;;4982790;28;20463;-82
2022/07/05 11:16:46;;;;;;;0.10;0.00;;;20.70;99.90;;;;;;4990755;28;20443;-82
2022/07/05 11:19:20;;;;;;;0.10;0.00;;;21.30;99.90;;;;;;4978758;28;20539;-81
2022/07/05 11:22:07;;;;;;;0.10;0.00;;;22.40;99.90;;;;;;4973181;28;20473;-84
2022/07/05 11:24:37;;;;;;;0.10;0.00;;;22.30;99.90;;;;;;4983521;28;20479;-82
2022/07/05 11:27:09;;;;;;;0.10;0.00;;;22.40;99.90;;;;;;4959117;28;20491;-84
2022/07/05 11:29:58;;;;;;;0.10;0.00;;;22.20;99.90;;;;;;4988080;28;20508;-85
2022/07/05 11:32:36;;;;;;;0.10;0.00;;;22.60;99.90;;;;;;4986445;28;20995;-83
2022/07/05 11:35:35;;;;;;;0.10;0.00;;;22.70;99.90;;;;;;4988172;28;20952;-83
2022/07/05 11:38:07;;;;;;;0.10;0.00;;;23.40;99.90;;;;;;4931959;28;20444;-83
2022/07/05 11:40:37;;;;;;;0.10;0.00;;;23.30;99.90;;;;;;4986843;28;20447;-84
2022/07/05 11:43:06;;;;;;;0.10;0.00;;;22.30;99.90;;;;;;4971946;28;20523;-83
2022/07/05 11:45:33;;;;;;;0.10;0.00;;;22.00;99.90;;;;;;4967215;28;20441;-84
2022/07/05 11:47:59;;;;;;;0.10;0.00;;;23.20;99.90;;;;;;4979385;28;20441;-88
2022/07/05 11:50:30;;;;;;;0.10;0.00;;;24.20;99.90;;;;;;4991622;28;20451;-85
2022/07/05 11:52:57;;;;;;;0.10;0.00;;;24.20;99.90;;;;;;4968539;28;20451;-83
2022/07/05 11:55:26;;;;;;;0.10;0.00;;;24.10;99.90;;;;;;4987854;28;20439;-85
2022/07/05 11:57:52;;;;;;;0.00;0.00;;;22.80;99.90;;;;;;4970060;28;20547;-87
2022/07/05 12:00:37;;;;;;;0.00;0.00;;;22.10;99.90;;;;;;4987364;28;20816;-85
2022/07/05 12:03:13;;;;;;;0.00;0.00;;;22.70;99.90;;;;;;4986882;28;20665;-85
2022/07/05 12:05:39;;;;;;;0.00;0.00;;;23.00;99.90;;;;;;4988764;28;20566;-86
2022/07/05 12:08:05;;;;;;;0.00;0.00;;;23.30;99.90;;;;;;4969073;28;20506;-86
2022/07/05 12:13:15;;;;;;;0.00;0.00;;;23.10;99.90;;;;;;4987948;28;20683;-86
2022/07/05 12:15:40;;;;;;;0.00;0.00;;;23.20;99.90;;;;;;4969855;28;20444;-86
2022/07/05 12:18:08;;;;;;;0.00;0.00;;;23.70;99.90;;;;;;4989568;28;20688;-85
2022/07/05 12:20:36;;;;;;;0.00;0.00;;;23.70;99.90;;;;;;4971346;28;20272;-85
2022/07/05 12:23:03;;;;;;;0.00;0.00;;;23.20;99.90;;;;;;4970959;28;20538;-86
2022/07/05 12:25:30;;;;;;;0.00;0.00;;;22.80;99.90;;;;;;4981663;28;20491;-86
2022/07/05 12:27:58;;;;;;;0.00;0.00;;;23.40;99.90;;;;;;4982555;28;20449;-85
2022/07/05 12:30:27;;;;;;;0.00;0.00;;;23.50;99.90;;;;;;4986757;28;20436;-84
2022/07/05 12:32:56;;;;;;;0.00;0.00;;;24.80;99.90;;;;;;4987495;28;20452;-81
2022/07/05 12:35:42;;;;;;;0.00;0.00;;;25.00;99.90;;;;;;4972158;28;20440;-83
2022/07/05 12:38:16;;;;;;;0.00;0.00;;;26.40;99.90;;;;;;4985118;28;20448;-83
2022/07/05 12:40:44;;;;;;;0.00;0.00;;;26.40;99.90;;;;;;4970725;28;20829;-85
2022/07/05 12:43:12;;;;;;;0.00;0.00;;;26.30;99.90;;;;;;4987799;28;20494;-82
2022/07/05 12:45:39;;;;;;;0.00;0.00;;;25.80;99.90;;;;;;4988369;28;20811;-83
2022/07/05 12:48:06;;;;;;;0.00;0.00;;;25.30;99.90;;;;;;4990731;28;20424;-84
2022/07/05 12:50:52;;;;;;;0.00;0.00;;;24.70;99.90;;;;;;4987695;28;20502;-83
2022/07/05 12:58:53;;;;;;;0.00;0.00;;;24.10;99.90;;;;;;4983964;28;20451;-82
2022/07/05 13:01:31;;;;;;;0.00;0.00;;;23.40;99.90;;;;;;4981437;28;20436;-82
2022/07/05 13:04:11;;;;;;;0.00;0.00;;;23.00;99.90;;;;;;4978998;28;20923;-84
2022/07/05 13:06:44;;;;;;;0.00;0.00;;;23.50;99.90;;;;;;4987571;28;20444;-86